Time;durP1;ratioP1;P1;durP2;ratioP2;P2;SDS_P1;SDS_P2;PMS_P1;PMS_P2;Temp;Humidity;BMP_temperature;BMP_pressure;BME280_temperature;BME280_humidity;BME280_pressure;Samples;Min_cycle;Max_cycle;Signal;HPM_P1;HPM_P2
2021/03/20 00:00:35;;;;;;;2.23;1.10;;;;;;;-2.06;95.70;102341.59;4977706;28;20347;-67
2021/03/20 00:03:02;;;;;;;2.43;1.33;;;;;;;-1.90;96.31;102330.13;4981747;28;20192;-68
2021/03/20 00:05:28;;;;;;;2.23;1.30;;;;;;;-1.90;96.36;102329.28;4992608;28;20234;-68
2021/03/20 00:07:54;;;;;;;1.83;1.20;;;;;;;-1.95;96.74;102325.41;4982313;28;20189;-67
2021/03/20 00:10:20;;;;;;;2.13;1.20;;;;;;;-1.97;96.20;102317.56;4983278;28;20221;-68
2021/03/20 00:12:46;;;;;;;2.40;1.20;;;;;;;-2.07;97.12;102323.94;4980199;28;20682;-68
2021/03/20 00:15:13;;;;;;;2.57;1.27;;;;;;;-2.09;98.40;102318.75;4981537;28;20203;-68
2021/03/20 00:17:39;;;;;;;3.47;1.40;;;;;;;-2.16;98.26;102311.53;4965560;28;20212;-69
2021/03/20 00:20:06;;;;;;;3.53;1.40;;;;;;;-2.08;98.25;102308.97;4965368;28;20217;-67
2021/03/20 00:22:32;;;;;;;2.37;1.40;;;;;;;-2.18;97.68;102305.53;4982421;28;21188;-69
2021/03/20 00:24:57;;;;;;;1.40;1.30;;;;;;;-2.25;98.16;102313.28;5002393;28;20203;-68
2021/03/20 00:27:25;;;;;;;3.67;1.43;;;;;;;-2.31;98.90;102313.03;4966784;28;20223;-68
2021/03/20 00:29:51;;;;;;;1.70;1.07;;;;;;;-2.28;99.34;102308.25;4983463;28;20208;-68
2021/03/20 00:32:16;;;;;;;2.60;1.47;;;;;;;-2.26;99.87;102318.75;4981732;28;20669;-67
2021/03/20 00:34:42;;;;;;;2.87;1.30;;;;;;;-2.19;99.99;102323.31;4966064;28;20200;-67
2021/03/20 00:37:08;;;;;;;3.27;2.30;;;;;;;-2.11;99.22;102317.25;5001362;28;20224;-66
2021/03/20 00:39:33;;;;;;;3.53;1.90;;;;;;;-1.91;99.32;102317.78;4950084;28;20221;-67
2021/03/20 00:42:01;;;;;;;3.23;1.77;;;;;;;-1.81;98.40;102318.56;4956143;28;20279;-66
2021/03/20 00:44:27;;;;;;;2.97;2.30;;;;;;;-1.84;97.76;102308.22;5000958;28;20219;-65
2021/03/20 00:46:53;;;;;;;2.60;1.33;;;;;;;-1.87;97.88;102313.88;4962736;28;21680;-65
2021/03/20 00:49:21;;;;;;;3.37;1.40;;;;;;;-1.90;96.81;102308.00;4984308;28;20327;-68
2021/03/20 00:51:46;;;;;;;3.57;1.70;;;;;;;-1.87;96.99;102305.88;4967067;28;20586;-67
2021/03/20 00:54:16;;;;;;;2.70;1.40;;;;;;;-1.80;97.78;102311.41;4968554;28;20317;-65
2021/03/20 00:56:44;;;;;;;3.60;1.50;;;;;;;-1.71;97.34;102302.50;4984025;28;20332;-67
2021/03/20 00:59:09;;;;;;;3.43;1.83;;;;;;;-1.67;97.78;102304.69;5001498;28;20201;-68
2021/03/20 01:01:35;;;;;;;3.97;1.77;;;;;;;-1.49;97.19;102302.84;4999633;28;20235;-68
2021/03/20 01:04:03;;;;;;;2.57;1.60;;;;;;;-1.63;97.90;102314.06;5001443;28;20199;-69
2021/03/20 01:06:31;;;;;;;4.80;2.00;;;;;;;-1.55;96.33;102319.47;4976364;28;20225;-67
2021/03/20 01:08:57;;;;;;;3.70;2.20;;;;;;;-1.54;96.98;102299.81;4972431;28;20296;-67
2021/03/20 01:11:25;;;;;;;3.23;2.07;;;;;;;-1.46;96.99;102302.56;4938850;28;20231;-67
2021/03/20 01:13:51;;;;;;;3.90;2.30;;;;;;;-1.24;96.13;102310.88;4988983;28;20678;-66
2021/03/20 01:16:16;;;;;;;4.17;2.00;;;;;;;-1.04;95.90;102307.84;4988993;28;20225;-67
2021/03/20 01:18:44;;;;;;;3.30;1.70;;;;;;;-1.01;95.37;102314.66;4956016;28;20722;-67
2021/03/20 01:21:10;;;;;;;2.97;1.50;;;;;;;-1.09;94.95;102318.13;4989043;28;20221;-66
2021/03/20 01:23:35;;;;;;;2.10;1.40;;;;;;;-1.32;95.03;102320.63;4979075;28;20224;-66
2021/03/20 01:26:01;;;;;;;1.30;1.20;;;;;;;-1.32;95.30;102321.47;4971071;28;20216;-67
2021/03/20 01:28:27;;;;;;;2.43;1.63;;;;;;;-1.50;95.16;102327.84;4988185;28;20670;-67
2021/03/20 01:30:53;;;;;;;2.57;1.50;;;;;;;-1.40;95.06;102320.56;4955386;28;20231;-68
2021/03/20 01:33:21;;;;;;;2.93;1.57;;;;;;;-1.64;95.36;102328.38;4955318;28;20197;-69
2021/03/20 01:35:46;;;;;;;3.07;1.50;;;;;;;-1.90;96.51;102319.47;4964944;28;20229;-67
2021/03/20 01:38:15;;;;;;;2.47;1.30;;;;;;;-2.06;97.75;102317.66;4971243;28;20212;-67
2021/03/20 01:40:42;;;;;;;3.43;1.23;;;;;;;-2.25;98.67;102312.47;4964752;28;20299;-66
2021/03/20 01:43:08;;;;;;;2.67;1.73;;;;;;;-2.31;99.07;102315.69;4971373;28;20194;-67
2021/03/20 01:45:35;;;;;;;54.80;17.73;;;;;;;-2.24;100.00;102308.81;4991195;28;20284;-66
2021/03/20 01:48:14;;;;;;;24.03;9.03;;;;;;;-2.32;100.00;102303.41;4992903;28;20193;-68
2021/03/20 01:51:08;;;;;;;29.77;11.23;;;;;;;-2.31;100.00;102306.91;4990979;28;20243;-66
2021/03/20 01:53:45;;;;;;;17.00;7.40;;;;;;;-2.32;100.00;102310.56;4975048;28;20202;-67
2021/03/20 01:56:14;;;;;;;4.77;2.30;;;;;;;-2.43;100.00;102302.78;4974865;28;20235;-66
2021/03/20 01:58:40;;;;;;;2.97;1.67;;;;;;;-2.57;100.00;102304.09;4975351;28;20223;-67
2021/03/20 02:01:18;;;;;;;5.90;1.97;;;;;;;-2.63;100.00;102299.38;4975666;28;20311;-66
2021/03/20 02:03:46;;;;;;;4.07;2.20;;;;;;;-2.62;100.00;102308.19;4941679;28;20216;-67
2021/03/20 02:06:14;;;;;;;5.73;2.13;;;;;;;-2.71;100.00;102300.25;4959914;28;20212;-68
2021/03/20 02:08:41;;;;;;;3.30;1.97;;;;;;;-2.77;100.00;102307.00;4960529;28;20201;-67
2021/03/20 02:11:21;;;;;;;7.13;2.70;;;;;;;-2.73;100.00;102302.22;4949531;28;20593;-68
2021/03/20 02:13:59;;;;;;;4.87;2.30;;;;;;;-2.43;100.00;102303.63;4975620;28;20243;-67
2021/03/20 02:16:38;;;;;;;4.87;1.43;;;;;;;-2.57;100.00;102306.75;4990892;28;20307;-69
2021/03/20 02:19:13;;;;;;;4.43;1.90;;;;;;;-2.64;100.00;102300.38;4992580;28;20213;-67
2021/03/20 02:21:48;;;;;;;3.77;1.60;;;;;;;-2.51;100.00;102295.56;4974101;28;20248;-67
2021/03/20 02:24:53;;;;;;;2.33;1.30;;;;;;;-2.46;100.00;102293.25;4937115;28;20193;-68
2021/03/20 02:27:37;;;;;;;2.57;1.40;;;;;;;-2.62;100.00;102293.09;4991887;28;20232;-66
2021/03/20 02:30:24;;;;;;;4.67;1.90;;;;;;;-2.55;100.00;102302.13;4992065;28;20690;-69
2021/03/20 02:33:09;;;;;;;4.33;1.83;;;;;;;-2.65;100.00;102297.88;4967923;28;20225;-67
2021/03/20 02:35:51;;;;;;;5.43;1.93;;;;;;;-2.85;100.00;102308.75;5003218;28;20270;-68
2021/03/20 02:38:19;;;;;;;3.87;1.63;;;;;;;-2.83;100.00;102309.44;4967552;28;20208;-67
2021/03/20 02:41:09;;;;;;;3.80;1.60;;;;;;;-2.94;100.00;102317.56;5002787;28;20228;-67
2021/03/20 02:43:53;;;;;;;3.10;1.53;;;;;;;-3.01;100.00;102304.03;4983927;28;20193;-67
2021/03/20 02:46:22;;;;;;;3.83;1.57;;;;;;;-3.07;100.00;102310.91;4968107;28;20260;-67
2021/03/20 02:48:50;;;;;;;4.17;1.83;;;;;;;-2.92;100.00;102302.31;4970156;28;20193;-66
2021/03/20 02:51:50;;;;;;;3.63;1.67;;;;;;;-2.87;100.00;102302.72;4969469;28;20316;-67
2021/03/20 02:54:24;;;;;;;2.53;1.77;;;;;;;-2.99;100.00;102298.56;4975733;28;20303;-67
2021/03/20 02:56:57;;;;;;;2.47;1.67;;;;;;;-3.02;100.00;102294.41;4968351;28;20664;-68
2021/03/20 02:59:25;;;;;;;3.57;1.73;;;;;;;-3.06;100.00;102286.84;5002561;28;20217;-67
2021/03/20 03:01:55;;;;;;;3.13;1.80;;;;;;;-2.88;100.00;102293.06;4969181;28;20714;-67
2021/03/20 03:04:22;;;;;;;4.03;1.43;;;;;;;-2.96;100.00;102292.97;4954107;28;20189;-67
2021/03/20 03:07:00;;;;;;;3.73;1.97;;;;;;;-3.04;100.00;102290.19;4953686;28;20275;-67
2021/03/20 03:09:49;;;;;;;2.53;1.70;;;;;;;-3.09;100.00;102289.81;4985786;28;20259;-67
2021/03/20 03:12:18;;;;;;;2.57;1.47;;;;;;;-3.12;100.00;102281.28;4964163;28;20391;-67
2021/03/20 03:15:01;;;;;;;2.63;1.63;;;;;;;-3.09;100.00;102276.53;4951020;28;20207;-68
2021/03/20 03:17:27;;;;;;;3.33;2.00;;;;;;;-2.99;100.00;102272.84;4960952;28;20308;-69
2021/03/20 03:20:03;;;;;;;4.67;2.30;;;;;;;-3.01;100.00;102269.47;4966098;28;20248;-67
2021/03/20 03:22:49;;;;;;;7.87;2.20;;;;;;;-2.93;100.00;102264.31;4981603;28;20618;-67
2021/03/20 03:25:16;;;;;;;3.87;2.30;;;;;;;-2.89;100.00;102273.66;4983156;28;20201;-67
2021/03/20 03:27:44;;;;;;;4.37;2.30;;;;;;;-2.92;100.00;102263.28;4966163;28;20186;-68
2021/03/20 03:30:12;;;;;;;3.57;2.33;;;;;;;-2.91;100.00;102267.63;4963742;28;20244;-66
2021/03/20 03:32:40;;;;;;;3.00;2.07;;;;;;;-2.84;100.00;102267.88;4965227;28;20194;-67
2021/03/20 03:35:32;;;;;;;3.60;2.20;;;;;;;-2.78;100.00;102272.59;4977527;28;20943;-67
2021/03/20 03:38:13;;;;;;;4.23;2.20;;;;;;;-2.66;100.00;102270.41;4982418;28;20209;-67
2021/03/20 03:40:46;;;;;;;4.60;2.37;;;;;;;-2.45;100.00;102272.84;4979603;28;20240;-67
2021/03/20 03:43:16;;;;;;;4.03;2.10;;;;;;;-2.32;100.00;102274.16;4981929;28;20189;-67
2021/03/20 03:45:43;;;;;;;3.07;1.73;;;;;;;-2.13;100.00;102274.81;4965536;28;20276;-67
2021/03/20 03:48:13;;;;;;;2.73;1.63;;;;;;;-1.98;100.00;102288.44;4966204;28;20190;-67
2021/03/20 03:50:42;;;;;;;2.37;1.80;;;;;;;-2.06;100.00;102275.06;4981455;28;20225;-67
2021/03/20 03:53:08;;;;;;;4.70;1.73;;;;;;;-2.15;100.00;102281.31;4981214;28;20193;-67
2021/03/20 03:55:34;;;;;;;3.57;1.80;;;;;;;-1.90;100.00;102282.22;4961366;28;20222;-67
2021/03/20 03:58:28;;;;;;;6.27;2.20;;;;;;;-2.18;100.00;102281.59;4979025;28;20228;-66
2021/03/20 04:01:01;;;;;;;2.70;1.57;;;;;;;-2.29;100.00;102280.00;4965299;28;20229;-67
2021/03/20 04:03:43;;;;;;;4.53;1.70;;;;;;;-2.28;100.00;102280.84;4980912;28;20194;-67
2021/03/20 04:06:19;;;;;;;3.97;1.87;;;;;;;-2.27;100.00;102279.88;4981389;28;20334;-67
2021/03/20 04:09:08;;;;;;;2.63;2.17;;;;;;;-2.23;100.00;102270.59;4964882;28;20194;-66
2021/03/20 04:12:10;;;;;;;2.77;1.63;;;;;;;-2.14;100.00;102272.34;4980995;28;20299;-68
2021/03/20 04:15:03;;;;;;;4.13;1.80;;;;;;;-2.17;100.00;102275.28;4918517;28;20222;-68
2021/03/20 04:17:29;;;;;;;3.00;1.77;;;;;;;-2.07;100.00;102273.38;4967806;28;20471;-67
2021/03/20 04:20:22;;;;;;;2.30;1.77;;;;;;;-1.87;100.00;102270.41;4982947;28;20691;-67
2021/03/20 04:22:55;;;;;;;3.73;1.93;;;;;;;-1.83;100.00;102264.66;5001671;28;20248;-68
2021/03/20 04:25:51;;;;;;;3.03;2.20;;;;;;;-1.71;100.00;102265.22;4963468;28;20643;-68
2021/03/20 04:28:35;;;;;;;4.70;2.27;;;;;;;-1.85;100.00;102269.28;5002672;28;20259;-68
2021/03/20 04:31:10;;;;;;;4.67;2.40;;;;;;;-1.82;100.00;102268.97;5001810;28;20307;-67
2021/03/20 04:34:11;;;;;;;5.47;2.90;;;;;;;-1.59;100.00;102256.00;4952323;28;20192;-67
2021/03/20 04:36:41;;;;;;;5.27;2.97;;;;;;;-1.63;100.00;102255.50;4978752;28;20979;-67
2021/03/20 04:39:10;;;;;;;3.60;2.20;;;;;;;-1.70;100.00;102258.94;4958528;28;20209;-68
2021/03/20 04:41:36;;;;;;;3.77;1.97;;;;;;;-1.68;100.00;102254.28;4985154;28;20725;-67
2021/03/20 04:44:02;;;;;;;3.53;2.10;;;;;;;-1.69;100.00;102252.59;4969096;28;20231;-67
2021/03/20 04:46:31;;;;;;;2.77;1.77;;;;;;;-1.70;100.00;102262.41;4998384;28;20280;-66
2021/03/20 04:49:12;;;;;;;3.50;1.90;;;;;;;-1.59;100.00;102254.19;4967957;28;20260;-67
2021/03/20 04:51:43;;;;;;;3.63;2.23;;;;;;;-1.65;100.00;102244.13;4966601;28;20225;-67
2021/03/20 04:54:14;;;;;;;4.77;2.00;;;;;;;-1.65;100.00;102238.81;4981855;28;20216;-67
2021/03/20 04:56:52;;;;;;;3.13;2.13;;;;;;;-1.75;100.00;102251.38;4964196;28;20228;-67
2021/03/20 04:59:35;;;;;;;3.73;2.37;;;;;;;-1.71;100.00;102239.44;4975102;28;20221;-66
2021/03/20 05:02:01;;;;;;;2.60;2.23;;;;;;;-1.65;100.00;102257.44;4997724;28;20225;-67
2021/03/20 05:04:29;;;;;;;5.57;2.33;;;;;;;-1.76;100.00;102262.19;4979771;28;20255;-68
2021/03/20 05:06:55;;;;;;;2.30;1.87;;;;;;;-1.57;100.00;102265.50;4960875;28;20312;-67
2021/03/20 05:09:22;;;;;;;4.13;2.20;;;;;;;-1.70;100.00;102257.09;4942599;28;20225;-66
2021/03/20 05:11:55;;;;;;;2.80;2.07;;;;;;;-1.56;100.00;102269.84;4969741;28;20217;-68
2021/03/20 05:14:45;;;;;;;3.83;2.10;;;;;;;-1.36;100.00;102260.66;4957568;28;20194;-67
2021/03/20 05:17:16;;;;;;;3.97;2.20;;;;;;;-1.23;100.00;102271.72;4959032;28;20253;-66
2021/03/20 05:19:41;;;;;;;2.40;2.00;;;;;;;-1.19;100.00;102273.09;4963348;28;20606;-66
2021/03/20 05:22:26;;;;;;;3.30;2.00;;;;;;;-1.17;100.00;102265.75;4971231;28;20229;-68
2021/03/20 05:24:52;;;;;;;2.80;1.80;;;;;;;-1.24;100.00;102270.06;5002689;28;20216;-67
2021/03/20 05:27:25;;;;;;;3.50;2.13;;;;;;;-1.29;100.00;102269.69;4967973;28;20221;-67
2021/03/20 05:29:51;;;;;;;2.90;2.40;;;;;;;-1.19;100.00;102273.94;4961624;28;20210;-69
2021/03/20 05:32:24;;;;;;;3.50;2.23;;;;;;;-1.14;100.00;102267.16;4975271;28;20287;-67
2021/03/20 05:34:52;;;;;;;4.27;2.10;;;;;;;-1.01;100.00;102272.88;4977764;28;20360;-67
2021/03/20 05:37:24;;;;;;;3.43;2.30;;;;;;;-1.01;100.00;102264.03;4976761;28;20249;-67
2021/03/20 05:39:50;;;;;;;4.20;1.90;;;;;;;-1.17;100.00;102271.09;4967769;28;20245;-68
2021/03/20 05:42:18;;;;;;;2.80;2.00;;;;;;;-1.17;100.00;102273.75;4983410;28;20286;-67
2021/03/20 05:44:58;;;;;;;2.93;1.90;;;;;;;-1.04;100.00;102267.84;4968722;28;20801;-69
2021/03/20 05:47:49;;;;;;;4.23;1.87;;;;;;;-1.09;100.00;102291.47;4987230;28;20221;-66
2021/03/20 05:50:36;;;;;;;3.03;1.77;;;;;;;-1.02;100.00;102287.19;5004427;28;20212;-66
2021/03/20 05:53:39;;;;;;;5.00;2.00;;;;;;;-1.16;100.00;102288.75;4985194;28;20243;-66
2021/03/20 05:56:20;;;;;;;2.50;1.50;;;;;;;-1.07;100.00;102278.81;4968148;28;20609;-67
2021/03/20 05:59:20;;;;;;;2.93;1.57;;;;;;;-0.98;100.00;102280.53;4970596;28;20262;-67
2021/03/20 06:02:01;;;;;;;2.80;1.87;;;;;;;-0.84;100.00;102279.97;4995752;28;20275;-67
2021/03/20 06:04:39;;;;;;;4.13;2.23;;;;;;;-0.75;100.00;102287.00;4979681;28;20206;-67
2021/03/20 06:07:46;;;;;;;3.43;2.10;;;;;;;-0.71;100.00;102283.84;4967874;28;20717;-69
2021/03/20 06:10:53;;;;;;;2.90;1.83;;;;;;;-0.81;100.00;102274.28;4968784;28;20205;-67
2021/03/20 06:13:43;;;;;;;3.17;2.20;;;;;;;-0.86;100.00;102279.28;4983500;28;21602;-68
2021/03/20 06:16:23;;;;;;;4.57;2.30;;;;;;;-0.65;100.00;102285.84;4984743;28;20232;-70
2021/03/20 06:19:01;;;;;;;3.10;1.70;;;;;;;-0.67;100.00;102279.03;4983560;28;20236;-67
2021/03/20 06:21:49;;;;;;;2.53;1.80;;;;;;;-0.63;100.00;102283.03;4983074;28;20237;-67
2021/03/20 06:24:53;;;;;;;4.37;2.33;;;;;;;-0.44;99.77;102286.28;4951696;28;20198;-67
2021/03/20 06:27:21;;;;;;;6.63;2.50;;;;;;;-0.42;99.27;102291.44;4984101;28;20739;-69
2021/03/20 06:30:05;;;;;;;4.30;2.40;;;;;;;-0.33;99.35;102293.97;4967744;28;20264;-68
2021/03/20 06:32:36;;;;;;;3.00;2.00;;;;;;;-0.22;98.78;102289.19;4981120;28;20320;-69
2021/03/20 06:35:14;;;;;;;24.70;14.80;;;;;;;0.10;97.74;102278.56;4983803;28;20277;-67
2021/03/20 06:37:40;;;;;;;14.93;10.67;;;;;;;-0.04;96.90;102281.03;4984698;28;20892;-67
2021/03/20 06:40:06;;;;;;;8.33;5.63;;;;;;;0.06;97.25;102282.56;4979279;28;20593;-67
2021/03/20 06:42:37;;;;;;;4.60;3.67;;;;;;;0.28;96.49;102277.41;4977605;28;20227;-68
2021/03/20 06:45:07;;;;;;;6.13;2.10;;;;;;;0.31;95.75;102286.91;4963625;28;20663;-67
2021/03/20 06:47:36;;;;;;;3.47;1.97;;;;;;;0.39;94.66;102295.75;4980443;28;20186;-68
2021/03/20 06:50:11;;;;;;;3.37;1.77;;;;;;;0.23;94.37;102294.91;4951855;28;20206;-69
2021/03/20 06:52:39;;;;;;;3.07;1.70;;;;;;;0.37;94.03;102299.59;4987933;28;20364;-68
2021/03/20 06:55:17;;;;;;;2.70;1.83;;;;;;;0.33;93.78;102292.91;4971551;28;20257;-68
2021/03/20 06:57:43;;;;;;;2.07;1.70;;;;;;;0.35;94.18;102299.78;4985333;28;21614;-68
2021/03/20 07:00:29;;;;;;;2.63;1.60;;;;;;;0.64;92.93;102303.63;4984803;28;20249;-69
2021/03/20 07:03:19;;;;;;;2.20;1.50;;;;;;;0.78;91.54;102297.56;4980262;28;20313;-68
2021/03/20 07:05:54;;;;;;;3.27;1.50;;;;;;;1.00;90.78;102297.69;4978572;28;20228;-70
2021/03/20 07:08:28;;;;;;;2.63;1.90;;;;;;;0.98;89.72;102282.81;4982659;28;20267;-67
2021/03/20 07:10:54;;;;;;;2.37;1.70;;;;;;;1.09;88.68;102290.50;4983409;28;20233;-68
2021/03/20 07:13:30;;;;;;;1.93;1.53;;;;;;;1.08;88.40;102283.44;4983985;28;20201;-68
2021/03/20 07:16:06;;;;;;;3.53;2.80;;;;;;;0.85;88.79;102280.66;4965440;28;20225;-67
2021/03/20 07:18:43;;;;;;;3.63;2.00;;;;;;;1.00;88.52;102280.81;4982370;28;20217;-68
2021/03/20 07:21:42;;;;;;;3.63;2.53;;;;;;;1.14;89.08;102263.03;4983396;28;20217;-68
2021/03/20 07:24:17;;;;;;;5.70;2.60;;;;;;;1.25;86.63;102270.69;4971643;28;20715;-67
2021/03/20 07:26:50;;;;;;;3.43;2.00;;;;;;;1.70;85.33;102286.88;4966343;28;20279;-68
2021/03/20 07:29:15;;;;;;;4.07;2.10;;;;;;;1.97;82.04;102289.91;4977541;28;20653;-68
2021/03/20 07:31:52;;;;;;;4.50;2.17;;;;;;;1.93;81.67;102281.38;4949456;28;20256;-68
2021/03/20 07:34:21;;;;;;;3.23;2.27;;;;;;;2.45;79.26;102285.84;4982677;28;20189;-67
2021/03/20 07:37:21;;;;;;;3.37;2.10;;;;;;;2.20;75.25;102278.19;4934237;28;20927;-67
2021/03/20 07:40:00;;;;;;;2.90;1.70;;;;;;;2.20;72.60;102270.16;4994300;28;20213;-68
2021/03/20 07:42:32;;;;;;;2.70;1.80;;;;;;;2.10;72.10;102261.50;4961639;28;20247;-68
2021/03/20 07:45:18;;;;;;;3.37;2.60;;;;;;;2.26;72.83;102274.78;4978485;28;20267;-68
2021/03/20 07:47:56;;;;;;;3.47;1.77;;;;;;;2.55;67.47;102277.56;4977158;28;20225;-68
2021/03/20 07:50:26;;;;;;;3.90;2.10;;;;;;;2.52;66.93;102275.25;4976316;28;20209;-68
2021/03/20 07:53:03;;;;;;;2.80;1.83;;;;;;;2.36;62.87;102280.72;4960978;28;20205;-68
2021/03/20 07:55:31;;;;;;;3.47;2.40;;;;;;;2.45;62.22;102276.97;4994438;28;20870;-68
2021/03/20 07:58:00;;;;;;;3.00;1.60;;;;;;;2.31;60.16;102267.06;4978827;28;20209;-67
2021/03/20 08:00:29;;;;;;;4.57;2.10;;;;;;;2.26;59.96;102269.44;4977910;28;20220;-69
2021/03/20 08:03:05;;;;;;;4.40;2.23;;;;;;;2.00;59.97;102266.28;4945161;28;20247;-67
2021/03/20 08:05:33;;;;;;;3.50;2.20;;;;;;;2.10;60.33;102263.34;4929858;28;20225;-66
2021/03/20 08:08:08;;;;;;;3.50;2.07;;;;;;;1.98;60.63;102254.91;4958352;28;20614;-66
2021/03/20 08:10:34;;;;;;;5.27;2.50;;;;;;;2.22;61.31;102252.03;4956107;28;20221;-67
2021/03/20 08:13:24;;;;;;;2.47;1.33;;;;;;;2.18;60.55;102252.56;4973892;28;20224;-66
2021/03/20 08:15:55;;;;;;;2.20;1.63;;;;;;;2.31;61.38;102241.06;4974903;28;20256;-67
2021/03/20 08:18:31;;;;;;;3.87;1.77;;;;;;;2.43;60.71;102230.75;4990321;28;20217;-67
2021/03/20 08:21:14;;;;;;;3.20;1.80;;;;;;;2.59;61.88;102225.25;4991068;28;20303;-67
2021/03/20 08:24:02;;;;;;;3.60;1.80;;;;;;;2.68;59.41;102222.28;4987070;28;20247;-66
2021/03/20 08:26:27;;;;;;;2.53;1.60;;;;;;;2.93;59.72;102229.91;4974817;28;20217;-67
2021/03/20 08:28:57;;;;;;;3.07;1.77;;;;;;;3.14;57.59;102236.19;4989505;28;20618;-68
2021/03/20 08:31:42;;;;;;;4.07;1.60;;;;;;;3.00;58.39;102228.13;4974124;28;20295;-68
2021/03/20 08:34:28;;;;;;;3.27;1.40;;;;;;;2.83;57.73;102229.31;4991575;28;20755;-68
2021/03/20 08:37:11;;;;;;;3.43;1.60;;;;;;;2.42;58.15;102232.59;4990684;28;20615;-67
2021/03/20 08:39:45;;;;;;;3.40;1.80;;;;;;;2.60;59.11;102234.94;4983985;28;20235;-67
2021/03/20 08:42:26;;;;;;;2.93;1.50;;;;;;;3.08;57.59;102241.47;4970536;28;20579;-67
2021/03/20 08:45:12;;;;;;;2.30;2.10;;;;;;;2.77;58.07;102235.44;4964348;28;20187;-67
2021/03/20 08:47:49;;;;;;;2.30;1.43;;;;;;;2.92;57.51;102236.28;4977858;28;20221;-67
2021/03/20 08:50:36;;;;;;;4.17;1.80;;;;;;;3.21;57.97;102237.09;4959862;28;20205;-68
2021/03/20 08:53:42;;;;;;;3.83;1.70;;;;;;;3.44;57.02;102233.28;4969558;28;20197;-67
2021/03/20 08:56:34;;;;;;;1.83;1.37;;;;;;;3.57;55.59;102233.44;4971529;28;20228;-67
2021/03/20 08:59:16;;;;;;;2.23;1.20;;;;;;;3.57;55.33;102227.22;4949550;28;20237;-68
2021/03/20 09:01:52;;;;;;;1.83;1.30;;;;;;;3.84;56.41;102232.72;4969529;28;20319;-67
2021/03/20 09:04:20;;;;;;;2.13;1.50;;;;;;;4.39;53.65;102221.03;4984330;28;20191;-67
2021/03/20 09:06:52;;;;;;;3.00;1.67;;;;;;;3.97;53.97;102230.16;4968307;28;20229;-67
2021/03/20 09:09:29;;;;;;;2.07;1.37;;;;;;;3.71;54.55;102227.19;4976870;28;20699;-67
2021/03/20 09:12:05;;;;;;;2.53;1.30;;;;;;;3.54;54.41;102233.00;4945685;28;20244;-67
2021/03/20 09:14:40;;;;;;;1.93;1.50;;;;;;;3.54;54.38;102231.13;4989923;28;20283;-66
2021/03/20 09:17:16;;;;;;;2.70;1.10;;;;;;;3.85;53.80;102231.69;4990112;28;20294;-67
2021/03/20 09:19:52;;;;;;;11.47;6.73;;;;;;;4.10;52.20;102238.34;4942416;28;20213;-66
2021/03/20 09:22:19;;;;;;;3.63;2.03;;;;;;;3.90;52.86;102245.38;4992155;28;20220;-67
2021/03/20 09:24:51;;;;;;;1.87;1.20;;;;;;;3.91;52.10;102236.31;4991032;28;20699;-66
2021/03/20 09:27:54;;;;;;;2.27;1.10;;;;;;;4.11;51.52;102237.34;4971198;28;20217;-67
2021/03/20 09:30:33;;;;;;;1.90;1.30;;;;;;;4.84;49.80;102223.28;4988875;28;20695;-67
2021/03/20 09:33:01;;;;;;;3.10;1.13;;;;;;;4.40;49.21;102222.72;4988832;28;20177;-67
2021/03/20 09:35:38;;;;;;;2.10;1.00;;;;;;;4.09;48.60;102231.34;4951165;28;20742;-67
2021/03/20 09:38:06;;;;;;;1.60;1.00;;;;;;;4.09;49.35;102228.63;4968740;28;20713;-66
2021/03/20 09:40:40;;;;;;;2.63;1.07;;;;;;;4.14;48.88;102210.06;4964946;28;20234;-66
2021/03/20 09:43:53;;;;;;;1.67;1.10;;;;;;;4.16;48.13;102202.63;4957375;28;20181;-67
2021/03/20 09:46:48;;;;;;;1.00;0.90;;;;;;;3.96;48.55;102217.75;4952992;28;20240;-68
2021/03/20 09:49:16;;;;;;;2.60;1.30;;;;;;;4.29;49.17;102203.59;5003221;28;20633;-67
2021/03/20 09:51:47;;;;;;;3.43;1.80;;;;;;;4.24;49.55;102204.16;5009086;28;20367;-66
2021/03/20 09:54:45;;;;;;;3.00;0.93;;;;;;;4.36;48.96;102207.16;4995027;28;20189;-67
2021/03/20 09:59:42;;;;;;;1.90;1.20;;;;;;;4.32;49.19;102204.03;4990827;28;20211;-68
2021/03/20 10:02:10;;;;;;;1.60;0.97;;;;;;;4.42;48.38;102201.84;5005334;28;20221;-68
2021/03/20 10:04:51;;;;;;;1.93;1.10;;;;;;;4.23;48.44;102205.19;4978763;28;20941;-69
2021/03/20 10:07:23;;;;;;;1.23;1.00;;;;;;;4.68;48.09;102199.34;5011946;28;20224;-68
2021/03/20 10:10:02;;;;;;;1.57;1.00;;;;;;;4.84;47.26;102189.09;4995453;28;20774;-69
2021/03/20 10:12:39;;;;;;;1.60;1.17;;;;;;;5.37;46.11;102191.88;4987590;28;20690;-69
2021/03/20 10:15:17;;;;;;;2.13;1.07;;;;;;;5.20;48.03;102185.19;4993877;28;20188;-67
2021/03/20 10:18:00;;;;;;;2.00;1.10;;;;;;;5.29;46.95;102192.03;4995492;28;20251;-69
2021/03/20 10:20:43;;;;;;;2.07;1.33;;;;;;;5.40;47.45;102181.53;4994534;28;20287;-68
2021/03/20 10:23:26;;;;;;;1.97;1.20;;;;;;;5.36;44.56;102184.81;4994839;28;20183;-68
2021/03/20 10:25:59;;;;;;;1.80;0.90;;;;;;;4.81;45.41;102185.97;4971836;28;20260;-67
2021/03/20 10:28:30;;;;;;;2.60;1.30;;;;;;;5.10;46.31;102179.31;4932565;28;20186;-68
2021/03/20 10:30:59;;;;;;;2.10;1.30;;;;;;;5.70;46.77;102179.34;4963222;28;20226;-69
2021/03/20 10:33:26;;;;;;;1.67;1.20;;;;;;;5.72;45.43;102174.59;4958494;28;20194;-68
2021/03/20 10:35:52;;;;;;;2.70;1.30;;;;;;;5.62;44.37;102176.81;4975337;28;20229;-68
2021/03/20 10:38:24;;;;;;;1.77;1.17;;;;;;;5.34;43.98;102183.38;4975744;28;20252;-69
2021/03/20 10:41:05;;;;;;;1.47;1.10;;;;;;;5.16;43.57;102173.13;4993201;28;20221;-69
2021/03/20 10:43:39;;;;;;;1.83;1.10;;;;;;;5.03;44.62;102164.97;4974967;28;20239;-67
2021/03/20 10:46:07;;;;;;;1.83;1.07;;;;;;;4.76;46.50;102162.38;4959227;28;20786;-66
2021/03/20 10:48:34;;;;;;;2.07;1.10;;;;;;;4.71;45.60;102155.91;4959152;28;20559;-67
2021/03/20 10:51:04;;;;;;;2.73;1.47;;;;;;;4.67;45.61;102154.63;4957552;28;20240;-68
2021/03/20 10:53:34;;;;;;;3.03;1.50;;;;;;;4.87;45.90;102155.56;4955365;28;20240;-68
2021/03/20 10:55:59;;;;;;;2.03;1.20;;;;;;;5.18;45.83;102156.75;4958075;28;20217;-67
2021/03/20 10:58:28;;;;;;;2.10;1.40;;;;;;;4.87;45.90;102148.34;4963089;28;20222;-73
2021/03/20 11:00:54;;;;;;;2.17;1.90;;;;;;;5.15;46.38;102139.16;4991884;28;20324;-69
2021/03/20 11:03:38;;;;;;;2.27;1.03;;;;;;;5.13;44.28;102152.00;4958575;28;20860;-67
2021/03/20 11:06:17;;;;;;;2.27;1.30;;;;;;;5.27;45.11;102139.41;4974494;28;20222;-68
2021/03/20 11:08:45;;;;;;;1.80;1.20;;;;;;;5.63;45.40;102133.50;4958991;28;20651;-67
2021/03/20 11:11:25;;;;;;;3.43;1.70;;;;;;;5.71;44.74;102121.69;4982179;28;20224;-67
2021/03/20 11:13:51;;;;;;;3.27;1.73;;;;;;;5.52;44.61;102131.41;4958197;28;20220;-67
2021/03/20 11:16:21;;;;;;;4.90;2.10;;;;;;;5.70;44.17;102131.66;4942238;28;20217;-68
2021/03/20 11:19:03;;;;;;;1.57;1.30;;;;;;;5.25;44.55;102130.69;4955215;28;20270;-69
2021/03/20 11:21:28;;;;;;;4.17;2.67;;;;;;;5.21;44.57;102134.81;4971479;28;20217;-68
2021/03/20 11:24:20;;;;;;;1.80;1.50;;;;;;;5.46;45.08;102120.63;4991094;28;20220;-69
2021/03/20 11:26:47;;;;;;;2.53;1.10;;;;;;;5.22;45.69;102125.69;4971342;28;20252;-69
2021/03/20 11:29:39;;;;;;;3.53;1.70;;;;;;;5.02;46.13;102122.94;4974921;28;20209;-68
2021/03/20 11:32:07;;;;;;;2.20;1.60;;;;;;;5.12;46.52;102114.50;4968282;28;20313;-69
2021/03/20 11:34:37;;;;;;;2.07;1.40;;;;;;;4.93;46.76;102117.09;4948887;28;20239;-69
2021/03/20 11:37:21;;;;;;;3.33;1.90;;;;;;;4.95;47.26;102104.28;4990234;28;20228;-68
2021/03/20 11:39:56;;;;;;;3.17;1.80;;;;;;;4.90;47.65;102095.97;4988843;28;20201;-68
2021/03/20 11:42:38;;;;;;;5.87;1.80;;;;;;;5.21;47.26;102094.44;4963064;28;20241;-69
2021/03/20 11:45:24;;;;;;;5.77;3.97;;;;;;;5.01;47.93;102094.34;4985453;28;20186;-70
2021/03/20 11:47:50;;;;;;;6.37;4.90;;;;;;;5.42;47.74;102095.09;4975496;28;20209;-69
2021/03/20 11:50:20;;;;;;;4.23;2.30;;;;;;;5.37;47.26;102084.13;4960251;28;20297;-69
2021/03/20 11:53:18;;;;;;;4.27;2.10;;;;;;;5.43;47.41;102080.59;4952628;28;20217;-69
2021/03/20 11:55:45;;;;;;;1.90;1.67;;;;;;;5.26;48.13;102073.94;4972363;28;20225;-70
2021/03/20 11:58:29;;;;;;;4.03;2.20;;;;;;;5.48;48.19;102078.13;4973099;28;20210;-69
2021/03/20 12:00:56;;;;;;;2.97;1.80;;;;;;;5.27;48.62;102072.88;4950917;28;20236;-68
2021/03/20 12:03:21;;;;;;;3.73;2.87;;;;;;;5.59;48.84;102064.88;4957748;28;20666;-68